Time;durP1;ratioP1;P1;durP2;ratioP2;P2;SDS_P1;SDS_P2;PMS_P1;PMS_P2;Temp;Humidity;BMP_temperature;BMP_pressure;BME280_temperature;BME280_humidity;BME280_pressure;Samples;Min_cycle;Max_cycle;Signal;HPM_P1;HPM_P2
2022/10/27 00:01:30;;;;;;;0.20;0.20;;;14.40;99.90;;;;;;4848647;29;20063;-79
2022/10/27 00:03:55;;;;;;;0.20;0.20;;;14.40;99.90;;;;;;4849385;29;20037;-79
2022/10/27 00:06:21;;;;;;;0.20;0.20;;;14.40;99.90;;;;;;4866404;29;20053;-79
2022/10/27 00:08:49;;;;;;;0.10;0.10;;;14.40;99.90;;;;;;4867446;29;20560;-79
2022/10/27 00:11:14;;;;;;;0.10;0.10;;;14.30;99.90;;;;;;4876930;29;20112;-79
2022/10/27 00:13:40;;;;;;;0.10;0.10;;;14.30;99.90;;;;;;4871448;29;20045;-79
2022/10/27 00:16:14;;;;;;;0.10;0.10;;;14.20;99.90;;;;;;4868971;29;20032;-79
2022/10/27 00:18:40;;;;;;;0.10;0.10;;;14.20;99.90;;;;;;4857163;29;20833;-79
2022/10/27 00:21:15;;;;;;;0.20;0.20;;;14.20;99.90;;;;;;4852135;29;20451;-81
2022/10/27 00:23:42;;;;;;;0.10;0.10;;;14.10;99.90;;;;;;4849906;29;20061;-80
2022/10/27 00:26:12;;;;;;;0.20;0.20;;;14.10;99.90;;;;;;4869136;29;20053;-79
2022/10/27 00:28:39;;;;;;;0.10;0.10;;;14.10;99.90;;;;;;4867176;29;20041;-79
2022/10/27 00:31:17;;;;;;;0.10;0.10;;;14.10;99.90;;;;;;4865735;29;20106;-79
2022/10/27 00:33:44;;;;;;;0.10;0.10;;;14.10;99.90;;;;;;4865871;29;20061;-79
2022/10/27 00:36:16;;;;;;;0.10;0.10;;;14.00;99.90;;;;;;4884508;29;20105;-79
2022/10/27 00:38:42;;;;;;;0.20;0.20;;;14.00;99.90;;;;;;4870219;29;20060;-79
2022/10/27 00:41:29;;;;;;;0.20;0.20;;;14.00;99.90;;;;;;4872052;29;20041;-79
2022/10/27 00:43:56;;;;;;;0.10;0.10;;;13.90;99.90;;;;;;4868471;29;20093;-79
2022/10/27 00:46:36;;;;;;;0.10;0.10;;;13.80;99.90;;;;;;4867973;29;20040;-79
2022/10/27 00:49:27;;;;;;;0.17;0.17;;;13.80;99.90;;;;;;4867835;29;20038;-79
2022/10/27 00:52:00;;;;;;;0.10;0.10;;;13.80;99.90;;;;;;4866227;29;20053;-79
2022/10/27 00:54:29;;;;;;;0.10;0.10;;;13.70;99.90;;;;;;4866149;29;20050;-78
2022/10/27 00:56:56;;;;;;;0.20;0.20;;;13.70;99.90;;;;;;4849212;29;20065;-79
2022/10/27 00:59:23;;;;;;;0.20;0.20;;;13.70;99.90;;;;;;4866003;29;20046;-79
2022/10/27 01:01:51;;;;;;;0.10;0.10;;;13.70;99.90;;;;;;4867824;29;20063;-79
2022/10/27 01:04:32;;;;;;;0.10;0.10;;;13.70;99.90;;;;;;4867131;29;20041;-79
2022/10/27 01:06:59;;;;;;;0.10;0.10;;;13.70;99.90;;;;;;4850438;29;20048;-79
2022/10/27 01:09:25;;;;;;;0.10;0.10;;;13.70;99.90;;;;;;4869329;29;20052;-79
2022/10/27 01:11:51;;;;;;;0.20;0.20;;;13.70;99.90;;;;;;4865413;29;20045;-78
2022/10/27 01:14:16;;;;;;;0.10;0.10;;;13.70;99.90;;;;;;4867966;29;20048;-79
2022/10/27 01:16:45;;;;;;;0.10;0.10;;;13.60;99.90;;;;;;4850683;29;20425;-80
2022/10/27 01:19:34;;;;;;;0.10;0.10;;;13.70;99.90;;;;;;4852492;29;20998;-79
2022/10/27 01:22:33;;;;;;;0.10;0.10;;;13.70;99.90;;;;;;4871834;29;20068;-79
2022/10/27 01:25:21;;;;;;;0.13;0.13;;;13.70;99.90;;;;;;4853344;29;20059;-79
2022/10/27 01:27:50;;;;;;;0.20;0.20;;;13.70;99.90;;;;;;4853984;29;20041;-79
2022/10/27 01:30:19;;;;;;;0.10;0.10;;;13.60;99.90;;;;;;4865481;29;20096;-80
2022/10/27 01:33:11;;;;;;;0.20;0.20;;;13.60;99.90;;;;;;4849079;29;20794;-80
2022/10/27 01:35:58;;;;;;;0.20;0.20;;;13.60;99.90;;;;;;4866940;29;20053;-80
2022/10/27 01:38:36;;;;;;;0.10;0.10;;;13.70;99.90;;;;;;4849339;29;20509;-80
2022/10/27 01:41:12;;;;;;;0.10;0.10;;;13.70;99.90;;;;;;4863704;29;20043;-78
2022/10/27 01:43:39;;;;;;;0.10;0.10;;;13.70;99.90;;;;;;4863579;29;20056;-80
2022/10/27 01:46:08;;;;;;;0.15;0.15;;;13.70;99.90;;;;;;4848478;29;20095;-80
2022/10/27 01:48:35;;;;;;;0.10;0.10;;;13.70;99.90;;;;;;4867180;29;20049;-80
2022/10/27 01:51:01;;;;;;;0.10;0.10;;;13.70;99.90;;;;;;4864421;29;20052;-80
2022/10/27 01:53:29;;;;;;;0.10;0.10;;;13.80;99.90;;;;;;4866555;29;20056;-78
2022/10/27 01:56:04;;;;;;;0.20;0.20;;;13.80;99.90;;;;;;4867688;29;20057;-77
2022/10/27 01:59:09;;;;;;;0.17;0.17;;;13.80;99.90;;;;;;4865267;29;20127;-78
2022/10/27 02:01:59;;;;;;;0.10;0.10;;;13.90;99.90;;;;;;4851722;29;20057;-77
2022/10/27 02:04:35;;;;;;;0.10;0.10;;;13.90;99.90;;;;;;4851060;29;20453;-77
2022/10/27 02:07:08;;;;;;;0.10;0.10;;;13.90;99.90;;;;;;4850266;29;20064;-78
2022/10/27 02:09:39;;;;;;;0.10;0.10;;;13.90;99.90;;;;;;4866097;29;20053;-78
2022/10/27 02:12:11;;;;;;;;;;;13.90;99.90;;;;;;4863244;29;20120;-79
2022/10/27 02:14:37;;;;;;;0.10;0.10;;;13.90;99.90;;;;;;4867921;29;20312;-77
2022/10/27 02:17:05;;;;;;;0.10;0.10;;;14.00;99.90;;;;;;4856054;29;20077;-78
2022/10/27 02:19:40;;;;;;;0.10;0.10;;;14.00;99.90;;;;;;4866483;29;20104;-78
2022/10/27 02:22:07;;;;;;;0.10;0.10;;;13.90;99.90;;;;;;4849703;29;20045;-78
2022/10/27 02:24:32;;;;;;;0.20;0.20;;;13.90;99.90;;;;;;4850622;29;20064;-78
2022/10/27 02:27:04;;;;;;;0.20;0.20;;;13.90;99.90;;;;;;4864716;29;20059;-78
2022/10/27 02:29:39;;;;;;;0.10;0.10;;;13.90;99.90;;;;;;4866779;29;20041;-77
2022/10/27 02:32:07;;;;;;;0.10;0.10;;;13.90;99.90;;;;;;4848588;29;20109;-77
2022/10/27 02:34:35;;;;;;;0.10;0.10;;;13.90;99.90;;;;;;4865992;29;20384;-77
2022/10/27 02:37:03;;;;;;;0.20;0.20;;;14.00;99.90;;;;;;4870482;29;20052;-79
2022/10/27 02:39:28;;;;;;;0.20;0.20;;;13.90;99.90;;;;;;4873962;29;20076;-78
2022/10/27 02:41:54;;;;;;;0.10;0.10;;;13.90;99.90;;;;;;4865492;29;20550;-78
2022/10/27 02:44:19;;;;;;;0.17;0.17;;;13.90;99.90;;;;;;4850120;29;20052;-77
2022/10/27 02:46:45;;;;;;;0.10;0.10;;;13.90;99.90;;;;;;4874554;29;20033;-78
2022/10/27 02:49:11;;;;;;;0.10;0.10;;;13.90;99.90;;;;;;4857973;29;20060;-78
2022/10/27 02:51:36;;;;;;;0.15;0.15;;;13.90;99.90;;;;;;4857307;29;20551;-80
2022/10/27 02:54:02;;;;;;;0.10;0.10;;;13.90;99.90;;;;;;4857201;29;20063;-77
2022/10/27 02:56:27;;;;;;;0.20;0.20;;;13.90;99.90;;;;;;4857647;29;20613;-77
2022/10/27 02:58:53;;;;;;;0.20;0.20;;;13.90;99.90;;;;;;4871682;29;20100;-78
2022/10/27 03:01:19;;;;;;;0.10;0.10;;;13.90;99.90;;;;;;4856202;29;20442;-77
2022/10/27 03:03:44;;;;;;;0.10;0.10;;;13.90;99.90;;;;;;4874573;29;20572;-78
2022/10/27 03:06:10;;;;;;;0.20;0.20;;;13.90;99.90;;;;;;4868870;29;20104;-77
2022/10/27 03:08:35;;;;;;;0.10;0.10;;;13.90;99.90;;;;;;4863548;29;20053;-78
2022/10/27 03:11:01;;;;;;;0.10;0.10;;;14.00;99.90;;;;;;4868722;29;20045;-77
2022/10/27 03:13:27;;;;;;;0.10;0.10;;;13.90;99.90;;;;;;4869058;29;20052;-77
2022/10/27 03:15:52;;;;;;;0.20;0.20;;;13.90;99.90;;;;;;4854292;29;20064;-78
2022/10/27 03:18:18;;;;;;;0.20;0.20;;;13.90;99.90;;;;;;4851219;29;20049;-79
2022/10/27 03:20:46;;;;;;;0.15;0.15;;;13.90;99.90;;;;;;4874303;29;20044;-78
2022/10/27 03:23:13;;;;;;;0.20;0.20;;;13.90;99.90;;;;;;4873708;29;20044;-78
2022/10/27 03:25:42;;;;;;;0.10;0.10;;;13.90;99.90;;;;;;4872310;29;20056;-78
2022/10/27 03:28:09;;;;;;;0.20;0.20;;;13.90;99.90;;;;;;4861101;29;20093;-79
2022/10/27 03:30:35;;;;;;;0.10;0.10;;;13.90;99.90;;;;;;4868133;29;20049;-77
2022/10/27 03:33:00;;;;;;;0.10;0.10;;;13.90;99.90;;;;;;4874695;29;20052;-78
2022/10/27 03:35:26;;;;;;;0.10;0.10;;;13.90;99.90;;;;;;4852846;29;20402;-80
2022/10/27 03:37:59;;;;;;;0.10;0.10;;;13.90;99.90;;;;;;4855245;29;20049;-77
2022/10/27 03:40:26;;;;;;;0.20;0.20;;;14.00;99.90;;;;;;4872545;29;20397;-78
2022/10/27 03:42:56;;;;;;;0.13;0.13;;;13.90;99.90;;;;;;4854942;29;20750;-77
2022/10/27 03:45:22;;;;;;;0.10;0.10;;;13.80;99.90;;;;;;4870988;29;20447;-77
2022/10/27 03:47:47;;;;;;;0.10;0.10;;;13.90;99.90;;;;;;4878435;29;20048;-78
2022/10/27 03:50:13;;;;;;;0.10;0.10;;;14.00;99.90;;;;;;4859559;29;20054;-78
2022/10/27 03:52:40;;;;;;;0.10;0.10;;;13.90;99.90;;;;;;4877827;29;20104;-78
2022/10/27 03:55:06;;;;;;;0.20;0.20;;;13.90;99.90;;;;;;4870957;29;20509;-78
2022/10/27 03:57:32;;;;;;;0.10;0.10;;;14.00;99.90;;;;;;4878933;29;20053;-77
2022/10/27 03:59:58;;;;;;;0.20;0.20;;;14.00;99.90;;;;;;4878546;29;20524;-77
2022/10/27 04:02:23;;;;;;;0.10;0.10;;;14.00;99.90;;;;;;4877462;29;20044;-78
2022/10/27 04:04:49;;;;;;;0.20;0.20;;;14.00;99.90;;;;;;4878414;29;20128;-78
2022/10/27 04:07:14;;;;;;;0.20;0.20;;;14.00;99.90;;;;;;4877876;29;20037;-77
2022/10/27 04:09:40;;;;;;;0.10;0.10;;;13.90;99.90;;;;;;4858666;29;20517;-77
2022/10/27 04:12:06;;;;;;;0.10;0.10;;;14.00;99.90;;;;;;4860104;29;20049;-79
2022/10/27 04:14:31;;;;;;;0.10;0.10;;;13.90;99.90;;;;;;4861191;29;20052;-77
2022/10/27 04:16:57;;;;;;;0.10;0.10;;;13.90;99.90;;;;;;4877279;29;20053;-79
2022/10/27 04:19:22;;;;;;;0.20;0.20;;;14.00;99.90;;;;;;4876319;29;20080;-78
2022/10/27 04:21:48;;;;;;;0.15;0.15;;;13.70;99.90;;;;;;4872561;29;20443;-78
2022/10/27 04:24:14;;;;;;;0.10;0.10;;;13.80;99.90;;;;;;4876031;29;20045;-78
2022/10/27 04:26:40;;;;;;;0.17;0.17;;;13.80;99.90;;;;;;4875055;29;20037;-78
2022/10/27 04:29:06;;;;;;;0.20;0.20;;;13.80;99.90;;;;;;4873120;29;20048;-78
2022/10/27 04:31:31;;;;;;;0.20;0.20;;;13.70;99.90;;;;;;4873061;29;20442;-78
2022/10/27 04:33:58;;;;;;;0.20;0.20;;;13.80;99.90;;;;;;4872692;29;20104;-78
2022/10/27 04:36:24;;;;;;;0.20;0.20;;;13.70;99.90;;;;;;4869107;29;20041;-78
2022/10/27 04:38:50;;;;;;;0.20;0.20;;;13.70;99.90;;;;;;4859955;29;20443;-78
2022/10/27 04:41:15;;;;;;;0.10;0.10;;;13.80;99.90;;;;;;4859619;29;20048;-78
2022/10/27 04:43:41;;;;;;;0.10;0.10;;;13.80;99.90;;;;;;4874146;29;20048;-78
2022/10/27 04:46:12;;;;;;;0.20;0.20;;;13.80;99.90;;;;;;4869328;29;20401;-77
2022/10/27 04:48:37;;;;;;;0.20;0.20;;;13.80;99.90;;;;;;4853774;29;20048;-78
2022/10/27 04:51:03;;;;;;;0.20;0.20;;;14.00;99.90;;;;;;4865082;29;20596;-80
2022/10/27 04:53:29;;;;;;;0.20;0.20;;;13.80;99.90;;;;;;4865152;29;20061;-79
2022/10/27 04:55:54;;;;;;;0.10;0.10;;;13.80;99.90;;;;;;4851741;29;20055;-77
2022/10/27 04:58:20;;;;;;;0.10;0.10;;;13.90;99.90;;;;;;4866986;29;20127;-80
2022/10/27 05:00:47;;;;;;;0.20;0.20;;;13.80;99.90;;;;;;4867107;29;20449;-77
2022/10/27 05:03:13;;;;;;;0.20;0.20;;;13.80;99.90;;;;;;4866500;29;20048;-77
2022/10/27 05:05:39;;;;;;;0.10;0.10;;;13.80;99.90;;;;;;4851416;29;20057;-78
2022/10/27 05:08:04;;;;;;;0.10;0.10;;;13.80;99.90;;;;;;4868434;29;20068;-78
2022/10/27 05:10:32;;;;;;;0.20;0.20;;;13.80;99.90;;;;;;4867781;29;20049;-79
2022/10/27 05:12:58;;;;;;;0.13;0.13;;;13.80;99.90;;;;;;4867895;29;20056;-78
2022/10/27 05:15:23;;;;;;;0.10;0.10;;;13.80;99.90;;;;;;4868470;29;20041;-77
2022/10/27 05:17:49;;;;;;;0.10;0.10;;;13.70;99.90;;;;;;4850999;29;20072;-80
2022/10/27 05:20:15;;;;;;;0.10;0.10;;;13.70;99.90;;;;;;4849949;29;20048;-80
2022/10/27 05:22:41;;;;;;;0.10;0.10;;;13.70;99.90;;;;;;4850702;29;20124;-78
2022/10/27 05:25:08;;;;;;;0.20;0.20;;;13.70;99.90;;;;;;4850499;29;20136;-78
2022/10/27 05:27:35;;;;;;;0.10;0.10;;;13.70;99.90;;;;;;4866081;29;20049;-77
2022/10/27 05:30:01;;;;;;;0.10;0.10;;;13.70;99.90;;;;;;4873972;29;20041;-78
2022/10/27 05:32:27;;;;;;;0.15;0.15;;;13.70;99.90;;;;;;4860817;29;20104;-78
2022/10/27 05:34:52;;;;;;;0.10;0.10;;;13.60;99.90;;;;;;4871147;29;20397;-77
2022/10/27 05:37:18;;;;;;;0.10;0.10;;;13.60;99.90;;;;;;4863378;29;20133;-77
2022/10/27 05:39:44;;;;;;;0.10;0.10;;;13.50;99.90;;;;;;4869297;29;20473;-78
2022/10/27 05:42:09;;;;;;;0.10;0.10;;;13.50;99.90;;;;;;4871789;29;20477;-77
2022/10/27 05:44:35;;;;;;;0.10;0.10;;;13.50;99.90;;;;;;4866321;29;20045;-77
2022/10/27 05:47:00;;;;;;;0.10;0.10;;;13.50;99.90;;;;;;4868356;29;20067;-78
2022/10/27 05:49:26;;;;;;;0.10;0.10;;;13.40;99.90;;;;;;4867416;29;20496;-77
2022/10/27 05:51:52;;;;;;;0.20;0.20;;;13.50;99.90;;;;;;4850761;29;20519;-76
2022/10/27 05:54:18;;;;;;;0.10;0.10;;;13.40;99.90;;;;;;4852358;29;20045;-77
2022/10/27 05:56:44;;;;;;;0.20;0.20;;;13.40;99.90;;;;;;4864054;29;20052;-77
2022/10/27 05:59:11;;;;;;;0.10;0.10;;;13.40;99.90;;;;;;4862561;29;20037;-77
2022/10/27 06:01:36;;;;;;;0.20;0.20;;;13.50;99.90;;;;;;4863948;29;20037;-77
2022/10/27 06:04:02;;;;;;;0.20;0.20;;;13.50;99.90;;;;;;4864710;29;20120;-77
2022/10/27 06:06:28;;;;;;;0.13;0.13;;;13.40;99.90;;;;;;4853738;29;20075;-78
2022/10/27 06:08:54;;;;;;;0.20;0.20;;;13.40;99.90;;;;;;4864015;29;20069;-77
2022/10/27 06:11:20;;;;;;;0.10;0.10;;;13.40;99.90;;;;;;4855631;29;20136;-78
2022/10/27 06:13:49;;;;;;;0.10;0.10;;;13.40;99.90;;;;;;4836549;29;20045;-78
2022/10/27 06:16:16;;;;;;;0.20;0.20;;;13.40;99.90;;;;;;4836921;29;20438;-78
2022/10/27 06:18:41;;;;;;;0.20;0.20;;;13.40;99.90;;;;;;4849089;29;20087;-78
2022/10/27 06:21:07;;;;;;;0.20;0.20;;;13.30;99.90;;;;;;4831587;29;20057;-77
2022/10/27 06:23:33;;;;;;;0.20;0.20;;;13.30;99.90;;;;;;4849669;29;20049;-77
2022/10/27 06:25:58;;;;;;;0.10;0.10;;;13.40;99.90;;;;;;4832219;29;20061;-77
2022/10/27 06:28:34;;;;;;;0.20;0.20;;;13.40;99.90;;;;;;5101240;27;20404;-78
2022/10/27 06:30:59;;;;;;;0.10;0.10;;;13.30;99.90;;;;;;5086996;28;20098;-79
2022/10/27 06:33:25;;;;;;;0.10;0.10;;;13.30;99.90;;;;;;5090741;28;20048;-79
2022/10/27 06:35:51;;;;;;;0.20;0.20;;;13.30;99.90;;;;;;5094737;28;20036;-79
2022/10/27 06:38:17;;;;;;;0.13;0.13;;;13.30;99.90;;;;;;5087758;28;20033;-79
2022/10/27 06:40:43;;;;;;;0.10;0.10;;;13.30;99.90;;;;;;5090907;28;20667;-79
2022/10/27 06:43:12;;;;;;;0.20;0.20;;;13.30;99.90;;;;;;5084945;28;20044;-79
2022/10/27 06:45:38;;;;;;;0.10;0.10;;;13.30;99.90;;;;;;5092219;28;20055;-80
2022/10/27 06:48:07;;;;;;;0.20;0.20;;;13.30;99.90;;;;;;5084302;28;20046;-79
2022/10/27 06:50:33;;;;;;;0.20;0.20;;;13.30;99.90;;;;;;5086926;28;20428;-79
2022/10/27 06:53:00;;;;;;;0.10;0.10;;;13.30;99.90;;;;;;5088092;28;20072;-79
2022/10/27 06:55:26;;;;;;;0.20;0.20;;;13.30;99.90;;;;;;5089167;28;20039;-78
2022/10/27 06:57:52;;;;;;;0.20;0.20;;;13.40;99.90;;;;;;5089725;28;20048;-79
2022/10/27 07:00:18;;;;;;;0.20;0.20;;;13.50;99.90;;;;;;5093225;28;20035;-80
2022/10/27 07:02:43;;;;;;;0.10;0.10;;;13.40;99.90;;;;;;5088332;27;20398;-79
2022/10/27 07:05:09;;;;;;;0.20;0.20;;;13.40;99.90;;;;;;5090011;28;20044;-80
2022/10/27 07:07:35;;;;;;;0.10;0.10;;;13.50;99.90;;;;;;5088356;28;20040;-79
2022/10/27 07:10:01;;;;;;;0.15;0.15;;;13.50;99.90;;;;;;5091889;28;20067;-78
2022/10/27 07:12:27;;;;;;;0.10;0.10;;;13.50;99.90;;;;;;5089829;28;20066;-80
2022/10/27 07:14:53;;;;;;;0.10;0.10;;;13.50;99.90;;;;;;5092112;28;20479;-79
2022/10/27 07:17:18;;;;;;;0.10;0.10;;;13.60;99.90;;;;;;5087476;28;20489;-79
2022/10/27 07:19:44;;;;;;;0.10;0.10;;;13.70;99.90;;;;;;5086982;28;20522;-79
2022/10/27 07:22:10;;;;;;;0.20;0.20;;;13.70;99.90;;;;;;5087429;28;20046;-78
2022/10/27 07:24:35;;;;;;;0.15;0.15;;;13.90;99.90;;;;;;5090943;28;20378;-81
2022/10/27 07:27:01;;;;;;;0.13;0.13;;;13.70;99.90;;;;;;5101187;28;20097;-81
2022/10/27 07:29:27;;;;;;;0.10;0.10;;;13.80;99.90;;;;;;5102756;28;20052;-81
2022/10/27 07:31:52;;;;;;;0.10;0.10;;;13.80;99.90;;;;;;5086351;27;20052;-81
2022/10/27 07:34:18;;;;;;;0.10;0.10;;;13.80;99.90;;;;;;5101869;28;20052;-81
2022/10/27 07:36:43;;;;;;;0.20;0.20;;;13.90;99.90;;;;;;5096534;28;20119;-82
2022/10/27 07:39:09;;;;;;;0.10;0.10;;;13.90;99.90;;;;;;5078035;28;20087;-79
2022/10/27 07:41:35;;;;;;;0.20;0.20;;;14.00;99.90;;;;;;5075728;28;20281;-79
2022/10/27 07:44:00;;;;;;;0.17;0.17;;;14.00;99.90;;;;;;5080438;28;20036;-79
2022/10/27 07:46:27;;;;;;;0.10;0.10;;;14.00;99.90;;;;;;5072805;28;20040;-78
2022/10/27 07:48:53;;;;;;;0.10;0.10;;;14.10;99.90;;;;;;5079444;28;20048;-78
2022/10/27 07:51:19;;;;;;;0.10;0.10;;;14.10;99.90;;;;;;5080955;28;20384;-78
2022/10/27 07:53:45;;;;;;;0.10;0.10;;;14.10;99.90;;;;;;5089956;28;20052;-79
2022/10/27 07:56:10;;;;;;;0.10;0.10;;;14.20;99.90;;;;;;5091866;28;20040;-79
2022/10/27 07:58:36;;;;;;;0.10;0.10;;;14.10;99.90;;;;;;5086756;28;20090;-78
2022/10/27 08:01:03;;;;;;;0.10;0.10;;;14.20;99.90;;;;;;5078358;28;20044;-79
2022/10/27 08:03:30;;;;;;;0.10;0.10;;;14.30;99.90;;;;;;5083524;28;20048;-79
2022/10/27 08:06:02;;;;;;;0.15;0.15;;;14.30;99.90;;;;;;5087511;28;20052;-79
2022/10/27 08:08:28;;;;;;;0.10;0.10;;;14.30;99.90;;;;;;5078403;28;20048;-79
2022/10/27 08:10:54;;;;;;;0.13;0.13;;;14.40;99.90;;;;;;5074805;28;20486;-78
2022/10/27 08:13:19;;;;;;;0.10;0.10;;;14.40;99.90;;;;;;5077894;28;20056;-79
2022/10/27 08:15:45;;;;;;;0.10;0.10;;;14.50;99.90;;;;;;5075902;28;20106;-79
2022/10/27 08:18:12;;;;;;;0.10;0.10;;;14.50;99.90;;;;;;5073782;28;20119;-78
2022/10/27 08:20:46;;;;;;;0.10;0.10;;;14.60;99.90;;;;;;5074558;28;20040;-78
2022/10/27 08:23:20;;;;;;;0.20;0.20;;;14.60;99.90;;;;;;5076009;28;20090;-82
2022/10/27 08:25:46;;;;;;;0.10;0.10;;;14.70;99.90;;;;;;5081832;28;20059;-78
2022/10/27 08:28:13;;;;;;;0.10;0.10;;;14.80;99.90;;;;;;5077125;28;20059;-78
2022/10/27 08:30:40;;;;;;;0.10;0.10;;;14.80;99.90;;;;;;5075849;28;20028;-78
2022/10/27 08:33:06;;;;;;;0.20;0.20;;;14.80;99.90;;;;;;5079792;28;20032;-78
2022/10/27 08:35:32;;;;;;;0.10;0.10;;;14.80;99.90;;;;;;5076242;28;20040;-78
2022/10/27 08:38:06;;;;;;;0.20;0.20;;;14.90;99.90;;;;;;5094932;28;20390;-79
2022/10/27 08:40:56;;;;;;;0.13;0.13;;;14.90;99.90;;;;;;5086076;28;20071;-79
2022/10/27 08:43:44;;;;;;;0.10;0.10;;;14.90;99.90;;;;;;5082126;28;20051;-78
2022/10/27 08:46:35;;;;;;;0.10;0.10;;;15.00;99.90;;;;;;5075191;28;20047;-79
2022/10/27 08:49:05;;;;;;;0.10;0.10;;;15.00;99.90;;;;;;5070711;28;20131;-78
2022/10/27 08:51:33;;;;;;;0.20;0.20;;;15.10;99.90;;;;;;5110635;27;20609;-79
2022/10/27 08:53:59;;;;;;;0.10;0.10;;;15.10;99.90;;;;;;5075200;28;20044;-78
2022/10/27 08:56:35;;;;;;;0.13;0.13;;;15.10;99.90;;;;;;5079049;28;20114;-78
2022/10/27 08:59:02;;;;;;;0.20;0.20;;;15.10;99.90;;;;;;5089766;28;20040;-78
2022/10/27 09:01:34;;;;;;;0.10;0.10;;;15.20;99.90;;;;;;5133956;27;20048;-78
2022/10/27 09:04:22;;;;;;;0.10;0.10;;;15.20;99.90;;;;;;5090244;28;20109;-79
2022/10/27 09:06:59;;;;;;;0.10;0.10;;;15.30;99.90;;;;;;5090757;28;20122;-78
2022/10/27 09:09:37;;;;;;;0.10;0.10;;;15.30;99.90;;;;;;5090823;28;20081;-78
2022/10/27 09:12:50;;;;;;;0.20;0.20;;;15.40;99.90;;;;;;5076858;28;20179;-79
2022/10/27 09:15:30;;;;;;;0.15;0.15;;;15.50;99.90;;;;;;5027496;28;20110;-80
2022/10/27 09:18:19;;;;;;;0.20;0.20;;;15.60;99.90;;;;;;5078911;28;20083;-79
2022/10/27 09:20:54;;;;;;;0.10;0.10;;;15.70;99.90;;;;;;5076594;28;20127;-80
2022/10/27 09:23:34;;;;;;;0.10;0.10;;;15.80;99.90;;;;;;5079510;28;20572;-79
2022/10/27 09:26:00;;;;;;;0.20;0.20;;;15.80;99.90;;;;;;5088614;28;20047;-78
2022/10/27 09:28:48;;;;;;;0.10;0.10;;;15.90;99.90;;;;;;5081008;28;20064;-82
2022/10/27 09:31:20;;;;;;;0.10;0.10;;;16.00;99.90;;;;;;5085372;28;20123;-81
2022/10/27 09:34:12;;;;;;;0.20;0.20;;;16.00;99.90;;;;;;5086157;28;20043;-79
2022/10/27 09:36:38;;;;;;;0.20;0.20;;;16.10;99.90;;;;;;5078770;28;20086;-79
2022/10/27 09:39:04;;;;;;;0.20;0.20;;;16.20;99.90;;;;;;5082875;28;20024;-79
2022/10/27 09:41:31;;;;;;;0.10;0.10;;;16.20;99.90;;;;;;5073242;28;20040;-79
2022/10/27 09:43:59;;;;;;;0.10;0.10;;;16.30;99.90;;;;;;5067395;28;20079;-79
2022/10/27 09:46:28;;;;;;;0.20;0.20;;;16.30;99.90;;;;;;5089915;28;20039;-80
2022/10/27 09:49:04;;;;;;;0.10;0.10;;;16.40;99.90;;;;;;5088904;28;20055;-79
2022/10/27 09:51:54;;;;;;;0.20;0.20;;;16.40;99.90;;;;;;5088514;28;20053;-79
2022/10/27 09:54:34;;;;;;;0.20;0.20;;;16.50;99.90;;;;;;5089769;28;20036;-80
2022/10/27 09:57:18;;;;;;;0.20;0.20;;;16.50;99.90;;;;;;5084184;28;20048;-79
2022/10/27 09:59:55;;;;;;;0.10;0.10;;;16.50;99.90;;;;;;5086587;28;20162;-80
2022/10/27 10:02:26;;;;;;;0.20;0.20;;;16.60;99.90;;;;;;5076958;28;20391;-79
2022/10/27 10:04:52;;;;;;;0.20;0.20;;;16.60;99.90;;;;;;5079242;28;20039;-79
2022/10/27 10:07:35;;;;;;;0.20;0.20;;;16.70;99.90;;;;;;5070376;28;20048;-80
2022/10/27 10:10:00;;;;;;;0.10;0.10;;;16.70;99.90;;;;;;5077186;28;20060;-83
2022/10/27 10:12:26;;;;;;;0.10;0.10;;;16.80;99.90;;;;;;5078087;28;20047;-80
2022/10/27 10:15:11;;;;;;;0.10;0.10;;;16.80;99.90;;;;;;5087247;28;20178;-80
2022/10/27 10:17:40;;;;;;;0.13;0.13;;;16.80;99.90;;;;;;5084646;28;20040;-80
2022/10/27 10:20:22;;;;;;;0.20;0.20;;;16.90;99.90;;;;;;5076966;28;20056;-79
2022/10/27 10:22:49;;;;;;;0.20;0.20;;;16.90;99.90;;;;;;5081705;28;20115;-80
2022/10/27 10:25:27;;;;;;;0.20;0.20;;;17.00;99.90;;;;;;5079809;28;20052;-80
2022/10/27 10:28:04;;;;;;;0.20;0.20;;;17.00;99.90;;;;;;5074825;28;20465;-80
2022/10/27 10:30:38;;;;;;;0.10;0.10;;;17.10;99.90;;;;;;5070722;28;20052;-80
2022/10/27 10:33:12;;;;;;;0.20;0.20;;;17.20;99.90;;;;;;5071221;28;20104;-79
2022/10/27 10:35:49;;;;;;;0.10;0.10;;;17.20;99.90;;;;;;5087173;28;20082;-79
2022/10/27 10:38:23;;;;;;;0.20;0.20;;;17.30;99.90;;;;;;5088169;28;20135;-77
2022/10/27 10:41:11;;;;;;;0.17;0.17;;;17.30;99.90;;;;;;5074057;28;20048;-78
2022/10/27 10:43:37;;;;;;;0.20;0.20;;;17.40;99.90;;;;;;5066423;28;20048;-78
2022/10/27 10:46:04;;;;;;;0.10;0.10;;;17.50;99.90;;;;;;5068681;28;20040;-79
2022/10/27 10:48:46;;;;;;;0.20;0.20;;;17.50;99.90;;;;;;5068672;28;20704;-78
2022/10/27 10:51:13;;;;;;;0.20;0.20;;;17.50;99.90;;;;;;5082648;28;20048;-79
2022/10/27 10:53:49;;;;;;;0.10;0.10;;;17.60;99.90;;;;;;5085100;28;20451;-78
2022/10/27 10:56:28;;;;;;;0.10;0.10;;;17.60;99.90;;;;;;5081312;28;20047;-79
2022/10/27 10:59:17;;;;;;;0.20;0.20;;;17.70;99.90;;;;;;5082230;28;20075;-78
2022/10/27 11:01:49;;;;;;;0.20;0.20;;;17.80;99.90;;;;;;5068504;28;20070;-79
2022/10/27 11:04:20;;;;;;;0.10;0.10;;;17.90;99.90;;;;;;5090521;28;20040;-79
2022/10/27 11:07:00;;;;;;;0.20;0.20;;;17.90;99.90;;;;;;5090559;28;20047;-78
2022/10/27 11:09:33;;;;;;;0.20;0.20;;;18.00;99.90;;;;;;5088948;28;20400;-78
2022/10/27 11:12:00;;;;;;;0.20;0.20;;;18.10;99.90;;;;;;5084422;28;20602;-78
2022/10/27 11:14:28;;;;;;;0.20;0.20;;;18.30;99.90;;;;;;5089034;28;20375;-78
2022/10/27 11:17:00;;;;;;;0.10;0.10;;;18.40;99.90;;;;;;5077434;28;20524;-79
2022/10/27 11:19:30;;;;;;;0.15;0.15;;;18.40;99.90;;;;;;5075013;28;20041;-79
2022/10/27 11:22:00;;;;;;;0.20;0.20;;;18.50;99.90;;;;;;5083150;28;20135;-80
2022/10/27 11:24:40;;;;;;;0.20;0.20;;;18.50;99.90;;;;;;5077807;28;20560;-79
2022/10/27 11:27:14;;;;;;;0.13;0.13;;;18.60;99.90;;;;;;5084502;28;20144;-80
2022/10/27 11:30:02;;;;;;;0.20;0.20;;;18.70;99.90;;;;;;5083448;28;20479;-79
2022/10/27 11:32:39;;;;;;;0.20;0.20;;;18.80;99.90;;;;;;5125641;27;20048;-79
2022/10/27 11:35:27;;;;;;;0.20;0.20;;;18.90;99.90;;;;;;5090901;28;20439;-80
2022/10/27 11:38:06;;;;;;;0.20;0.20;;;19.00;99.90;;;;;;5088369;28;20162;-79
2022/10/27 11:40:56;;;;;;;0.20;0.20;;;19.10;99.90;;;;;;5091235;28;20088;-79
2022/10/27 11:43:27;;;;;;;0.20;0.20;;;19.20;99.90;;;;;;5074759;28;20052;-79
2022/10/27 11:46:06;;;;;;;0.20;0.20;;;19.20;99.90;;;;;;5070987;28;20044;-79
2022/10/27 11:48:51;;;;;;;0.20;0.20;;;19.50;99.90;;;;;;5077484;28;20072;-79
2022/10/27 11:51:19;;;;;;;0.20;0.20;;;19.70;99.90;;;;;;5085851;28;20044;-80
2022/10/27 11:53:45;;;;;;;0.20;0.20;;;19.90;99.90;;;;;;5083629;28;20047;-79
2022/10/27 11:56:36;;;;;;;0.20;0.20;;;20.00;99.90;;;;;;5081314;28;20550;-79
2022/10/27 11:59:22;;;;;;;0.10;0.10;;;20.10;99.90;;;;;;5082173;28;20071;-78
2022/10/27 12:02:09;;;;;;;0.20;0.20;;;20.20;99.90;;;;;;5072008;28;20060;-79
2022/10/27 12:05:07;;;;;;;0.20;0.20;;;20.20;99.90;;;;;;5083263;28;20135;-79
2022/10/27 12:08:00;;;;;;;0.20;0.20;;;20.40;99.90;;;;;;5070797;28;20048;-80
2022/10/27 12:10:34;;;;;;;0.20;0.20;;;20.70;99.90;;;;;;5072997;28;20052;-79
2022/10/27 12:13:30;;;;;;;0.20;0.20;;;21.20;99.90;;;;;;5074303;28;20041;-80
2022/10/27 12:16:01;;;;;;;0.20;0.20;;;21.60;99.90;;;;;;5087099;28;20055;-80
2022/10/27 12:18:39;;;;;;;0.20;0.20;;;22.10;99.90;;;;;;5079649;28;20040;-78
2022/10/27 12:21:10;;;;;;;0.20;0.20;;;22.50;99.90;;;;;;5086399;28;20060;-80
2022/10/27 12:23:43;;;;;;;0.20;0.20;;;22.80;99.90;;;;;;5098703;28;20048;-80
2022/10/27 12:26:44;;;;;;;0.20;0.20;;;23.00;99.90;;;;;;5102079;28;20036;-79
2022/10/27 12:29:11;;;;;;;0.20;0.20;;;24.40;99.90;;;;;;5048062;28;20056;-78
2022/10/27 12:31:54;;;;;;;0.20;0.20;;;25.70;99.90;;;;;;5070454;28;20090;-80
2022/10/27 12:34:21;;;;;;;0.20;0.20;;;27.00;99.90;;;;;;5089764;28;20123;-80
2022/10/27 12:36:59;;;;;;;0.20;0.20;;;28.30;99.90;;;;;;5092101;28;20108;-79
2022/10/27 12:39:33;;;;;;;0.20;0.20;;;29.10;99.90;;;;;;5084229;28;20093;-80
2022/10/27 12:42:13;;;;;;;0.20;0.20;;;29.20;99.90;;;;;;5089586;28;20040;-79
2022/10/27 12:45:06;;;;;;;0.20;0.20;;;28.80;99.90;;;;;;5076938;28;20052;-79
2022/10/27 12:48:02;;;;;;;0.20;0.20;;;28.30;99.90;;;;;;5073128;28;20503;-80
2022/10/27 12:50:45;;;;;;;0.20;0.20;;;28.40;99.90;;;;;;5090486;28;20075;-79
2022/10/27 12:53:20;;;;;;;0.20;0.20;;;28.40;99.90;;;;;;5078464;28;20048;-79
2022/10/27 12:55:53;;;;;;;0.20;0.20;;;28.30;99.90;;;;;;5071064;28;20102;-79
2022/10/27 12:58:52;;;;;;;0.20;0.20;;;28.10;99.90;;;;;;5102191;27;20503;-79
2022/10/27 13:01:27;;;;;;;0.20;0.20;;;28.00;99.90;;;;;;5070249;28;20048;-79
2022/10/27 13:04:17;;;;;;;0.20;0.20;;;28.00;99.90;;;;;;5070978;28;20040;-78
2022/10/27 13:06:54;;;;;;;0.20;0.20;;;27.50;99.90;;;;;;5080306;28;20127;-79
2022/10/27 13:09:20;;;;;;;0.20;0.20;;;26.80;99.90;;;;;;5084804;28;20052;-81